createdAt,value
2022-11-28T00:00:21.279Z,98386.39
2022-11-28T00:02:45.081Z,98383.80
2022-11-28T00:04:51.219Z,98381.80
2022-11-28T00:06:54.684Z,98377.08
2022-11-28T00:08:59.725Z,98374.73
2022-11-28T00:11:07.092Z,98372.27
2022-11-28T00:13:09.951Z,98370.60
2022-11-28T00:15:12.876Z,98372.60
2022-11-28T00:17:15.663Z,98373.02
2022-11-28T00:19:18.564Z,98373.97
2022-11-28T00:21:22.631Z,98375.51
2022-11-28T00:23:25.616Z,98370.71
2022-11-28T00:25:28.683Z,98367.91
2022-11-28T00:27:33.867Z,98369.77
2022-11-28T00:29:36.842Z,98367.26
2022-11-28T00:31:44.888Z,98364.49
2022-11-28T00:33:48.621Z,98366.79
2022-11-28T00:35:51.523Z,98371.63
2022-11-28T00:37:54.385Z,98369.89
2022-11-28T00:39:57.838Z,98366.05
2022-11-28T00:42:00.753Z,98366.55
2022-11-28T00:44:03.770Z,98366.54
2022-11-28T00:46:08.038Z,98361.00
2022-11-28T00:48:10.939Z,98358.83
2022-11-28T00:50:14.050Z,98362.23
2022-11-28T00:52:16.952Z,98356.39
2022-11-28T00:54:19.751Z,98355.49
2022-11-28T00:56:25.382Z,98354.58
2022-11-28T00:58:28.178Z,98347.70
2022-11-28T01:00:31.221Z,98351.56
2022-11-28T01:02:34.327Z,98347.30
2022-11-28T01:04:37.206Z,98344.46
2022-11-28T01:06:46.490Z,98343.10
2022-11-28T01:08:49.415Z,98343.13
2022-11-28T01:10:52.382Z,98341.69
2022-11-28T01:12:55.183Z,98342.77
2022-11-28T01:14:58.533Z,98341.80
2022-11-28T01:17:01.413Z,98342.34
2022-11-28T01:19:05.357Z,98341.44
2022-11-28T01:21:08.720Z,98340.52
2022-11-28T01:23:11.859Z,98331.44
2022-11-28T01:25:14.678Z,98324.06
2022-11-28T01:27:17.697Z,98320.98
2022-11-28T01:29:20.643Z,98321.98
2022-11-28T01:31:26.291Z,98322.17
2022-11-28T01:33:29.130Z,98319.60
2022-11-28T01:35:31.936Z,98317.77
2022-11-28T01:37:34.746Z,98317.11
2022-11-28T01:39:38.338Z,98314.60
2022-11-28T01:41:41.328Z,98312.27
2022-11-28T01:44:08.258Z,98310.87
2022-11-28T01:46:11.154Z,98310.02
2022-11-28T01:48:24.409Z,98304.61
2022-11-28T01:50:29.751Z,98298.77
2022-11-28T01:52:33.941Z,98296.38
2022-11-28T01:54:38.978Z,98292.34
2022-11-28T01:56:47.730Z,98284.66
2022-11-28T01:58:54.834Z,98283.82
2022-11-28T02:00:58.241Z,98281.87
2022-11-28T02:03:06.730Z,98278.02
2022-11-28T02:05:09.894Z,98274.68
2022-11-28T02:07:13.724Z,98275.34
2022-11-28T02:09:17.034Z,98272.70
2022-11-28T02:11:29.056Z,98269.19
2022-11-28T02:13:44.739Z,98263.94
2022-11-28T02:16:31.281Z,98259.46
2022-11-28T02:18:59.523Z,98259.02
2022-11-28T02:21:09.011Z,98254.58
2022-11-28T02:23:33.016Z,98250.84
2022-11-28T02:26:00.637Z,98251.27
2022-11-28T02:28:21.625Z,98244.69
2022-11-28T02:30:48.703Z,98240.33
2022-11-28T02:33:07.984Z,98239.33
2022-11-28T02:35:25.476Z,98241.75
2022-11-28T02:37:44.362Z,98237.98
2022-11-28T02:39:50.269Z,98235.00
2022-11-28T02:42:18.486Z,98233.16
2022-11-28T02:44:56.446Z,98232.73
2022-11-28T02:47:05.888Z,98237.73
2022-11-28T02:49:33.394Z,98235.59
2022-11-28T02:52:03.597Z,98234.71
2022-11-28T02:54:10.198Z,98237.12
2022-11-28T02:56:13.583Z,98233.15
2022-11-28T02:58:18.651Z,98229.78
2022-11-28T03:00:36.356Z,98229.27
2022-11-28T03:02:39.929Z,98230.42
2022-11-28T03:04:42.935Z,98223.38
2022-11-28T03:07:00.040Z,98223.61
2022-11-28T03:09:24.400Z,98225.58
2022-11-28T03:11:42.920Z,98223.83
2022-11-28T03:14:09.177Z,98221.48
2022-11-28T03:16:28.978Z,98216.89
2022-11-28T03:18:51.560Z,98217.86
2022-11-28T03:21:02.160Z,98221.02
2022-11-28T03:23:10.625Z,98216.19
2022-11-28T03:25:16.149Z,98213.80
2022-11-28T03:27:26.439Z,98214.34
2022-11-28T03:29:37.428Z,98214.83
2022-11-28T03:31:45.749Z,98214.35
2022-11-28T03:33:53.962Z,98209.59
2022-11-28T03:36:03.804Z,98208.22
2022-11-28T03:38:18.811Z,98204.30
2022-11-28T03:40:33.659Z,98203.82
2022-11-28T03:42:41.561Z,98199.66
2022-11-28T03:45:17.913Z,98196.73
2022-11-28T03:47:24.618Z,98192.97
2022-11-28T03:49:36.113Z,98190.04
2022-11-28T03:52:07.780Z,98190.57
2022-11-28T03:54:28.022Z,98184.88
2022-11-28T03:56:36.982Z,98183.56
2022-11-28T03:59:04.273Z,98182.87
2022-11-28T04:01:22.171Z,98185.39
2022-11-28T04:03:48.391Z,98182.96
2022-11-28T04:06:05.761Z,98180.88
2022-11-28T04:08:18.934Z,98180.90
2022-11-28T04:10:44.141Z,98174.38
2022-11-28T04:13:01.528Z,98172.19
2022-11-28T04:15:17.155Z,98173.25
2022-11-28T04:17:32.869Z,98170.80
2022-11-28T04:19:58.598Z,98168.63
2022-11-28T04:22:21.412Z,98173.11
2022-11-28T04:24:30.033Z,98179.98
2022-11-28T04:26:37.152Z,98178.82
2022-11-28T04:28:40.284Z,98177.61
2022-11-28T04:30:45.653Z,98176.45
2022-11-28T04:32:52.196Z,98186.20
2022-11-28T04:35:04.807Z,98186.54
2022-11-28T04:37:10.033Z,98192.11
2022-11-28T04:39:17.734Z,98195.68
2022-11-28T04:41:26.677Z,98194.44
2022-11-28T04:43:41.830Z,98190.65
2022-11-28T04:45:50.146Z,98192.29
2022-11-28T04:47:53.299Z,98192.20
2022-11-28T04:49:56.279Z,98193.52
2022-11-28T04:52:07.267Z,98195.33
2022-11-28T04:54:43.001Z,98195.20
2022-11-28T04:56:52.820Z,98192.20
2022-11-28T04:58:56.084Z,98195.04
2022-11-28T05:01:00.354Z,98198.52
2022-11-28T05:03:04.789Z,98195.82
2022-11-28T05:05:15.687Z,98198.13
2022-11-28T05:07:18.575Z,98200.11
2022-11-28T05:09:21.444Z,98197.31
2022-11-28T05:11:24.886Z,98195.52
2022-11-28T05:13:27.656Z,98195.61
2022-11-28T05:15:30.538Z,98196.83
2022-11-28T05:17:35.669Z,98197.70
2022-11-28T05:19:41.842Z,98197.17
2022-11-28T05:21:45.065Z,98196.73
2022-11-28T05:23:48.783Z,98193.95
2022-11-28T05:25:51.624Z,98192.83
2022-11-28T05:27:57.498Z,98192.52
2022-11-28T05:30:00.332Z,98186.70
2022-11-28T05:32:04.217Z,98188.77
2022-11-28T05:34:07.041Z,98190.89
2022-11-28T05:36:13.331Z,98186.46
2022-11-28T05:38:16.495Z,98189.31
2022-11-28T05:40:19.353Z,98191.42
2022-11-28T05:42:22.212Z,98192.83
2022-11-28T05:44:27.239Z,98191.17
2022-11-28T05:46:30.512Z,98192.33
2022-11-28T05:48:33.336Z,98194.17
2022-11-28T05:50:40.150Z,98190.60
2022-11-28T05:52:43.048Z,98185.95
2022-11-28T05:54:45.878Z,98186.73
2022-11-28T05:56:48.706Z,98189.67
2022-11-28T05:58:53.311Z,98190.30
2022-11-28T06:00:56.083Z,98191.08
2022-11-28T06:03:01.487Z,98192.77
2022-11-28T06:05:27.139Z,98196.80
2022-11-28T06:07:27.835Z,98194.89
2022-11-28T06:09:30.630Z,98196.81
2022-11-28T06:11:34.370Z,98195.92
2022-11-28T06:13:37.241Z,98193.77
2022-11-28T06:15:44.965Z,98191.23
2022-11-28T06:17:47.756Z,98194.46
2022-11-28T06:19:50.649Z,98195.02
2022-11-28T06:21:53.666Z,98191.45
2022-11-28T06:23:58.101Z,98188.55
2022-11-28T06:26:06.348Z,98190.11
2022-11-28T06:28:09.412Z,98191.12
2022-11-28T06:30:12.545Z,98189.45
2022-11-28T06:32:18.933Z,98192.20
2022-11-28T06:34:24.870Z,98192.63
2022-11-28T06:36:30.771Z,98191.45
2022-11-28T06:38:33.654Z,98189.48
2022-11-28T06:40:38.805Z,98190.01
2022-11-28T06:42:41.557Z,98194.24
2022-11-28T06:44:44.340Z,98191.84
2022-11-28T06:46:47.258Z,98192.02
2022-11-28T06:48:51.629Z,98193.42
2022-11-28T06:50:55.023Z,98190.20
2022-11-28T06:52:57.850Z,98190.54
2022-11-28T06:55:00.746Z,98188.50
2022-11-28T06:57:03.870Z,98187.99
2022-11-28T06:59:06.891Z,98188.77
2022-11-28T07:01:20.444Z,98188.05
2022-11-28T07:03:23.355Z,98185.94
2022-11-28T07:05:31.093Z,98185.11
2022-11-28T07:07:41.741Z,98185.54
2022-11-28T07:09:55.911Z,98188.63
2022-11-28T07:11:58.848Z,98179.49
2022-11-28T07:14:02.826Z,98182.31
2022-11-28T07:16:06.236Z,98182.39
2022-11-28T07:18:09.013Z,98180.54
2022-11-28T07:20:12.549Z,98178.60
2022-11-28T07:22:15.387Z,98180.57
2022-11-28T07:24:20.037Z,98173.98
2022-11-28T07:26:23.289Z,98172.88
2022-11-28T07:28:27.122Z,98175.13
2022-11-28T07:30:29.937Z,98169.96
2022-11-28T07:32:32.706Z,98170.33
2022-11-28T07:34:35.926Z,98171.76
2022-11-28T07:36:38.722Z,98172.19
2022-11-28T07:38:41.711Z,98168.98
2022-11-28T07:40:44.456Z,98165.65
2022-11-28T07:42:48.914Z,98165.23
2022-11-28T07:44:51.721Z,98162.27
2022-11-28T07:46:54.576Z,98163.96
2022-11-28T07:48:57.474Z,98160.86
2022-11-28T07:51:04.339Z,98162.59
2022-11-28T07:53:07.501Z,98157.20
2022-11-28T07:55:10.450Z,98150.77
2022-11-28T07:57:13.608Z,98147.64
2022-11-28T07:59:16.900Z,98146.09
2022-11-28T08:01:22.538Z,98146.83
2022-11-28T08:03:25.311Z,98149.96
2022-11-28T08:05:28.157Z,98143.61
2022-11-28T08:07:31.021Z,98141.65
2022-11-28T08:09:33.962Z,98137.66
2022-11-28T08:11:36.954Z,98138.10
2022-11-28T08:13:40.248Z,98140.08
2022-11-28T08:15:43.074Z,98138.27
2022-11-28T08:17:46.029Z,98136.73
2022-11-28T08:19:48.805Z,98138.60
2022-11-28T08:21:51.684Z,98136.89
2022-11-28T08:23:56.243Z,98138.92
2022-11-28T08:26:03.289Z,98139.55
2022-11-28T08:28:06.080Z,98135.83
2022-11-28T08:30:09.685Z,98135.33
2022-11-28T08:32:12.646Z,98136.69
2022-11-28T08:34:15.496Z,98138.64
2022-11-28T08:36:19.560Z,98137.73
2022-11-28T08:38:25.340Z,98139.83
2022-11-28T08:40:28.886Z,98140.98
2022-11-28T08:42:31.654Z,98139.96
2022-11-28T08:44:34.459Z,98141.35
2022-11-28T08:46:37.278Z,98135.17
2022-11-28T08:48:41.237Z,98139.67
2022-11-28T08:50:50.651Z,98139.98
2022-11-28T08:52:53.585Z,98138.93
2022-11-28T08:54:56.472Z,98138.75
2022-11-28T08:56:59.796Z,98137.13
2022-11-28T08:59:02.907Z,98143.00
2022-11-28T09:01:15.039Z,98138.41
2022-11-28T09:03:20.173Z,98136.13
2022-11-28T09:05:22.969Z,98138.05
2022-11-28T09:07:25.839Z,98139.49
2022-11-28T09:09:32.703Z,98139.79
2022-11-28T09:11:47.085Z,98135.48
2022-11-28T09:13:50.326Z,98135.20
2022-11-28T09:15:53.864Z,98130.93
2022-11-28T09:17:56.819Z,98125.34
2022-11-28T09:19:59.591Z,98123.89
2022-11-28T09:22:02.468Z,98122.17
2022-11-28T09:24:06.541Z,98123.29
2022-11-28T09:26:11.198Z,98123.27
2022-11-28T09:28:13.945Z,98125.58
2022-11-28T09:30:17.095Z,98121.63
2022-11-28T09:32:19.885Z,98118.01
2022-11-28T09:34:22.658Z,98117.46
2022-11-28T09:36:25.543Z,98114.34
2022-11-28T09:38:28.372Z,98113.52
2022-11-28T09:40:42.131Z,98110.27
2022-11-28T09:42:46.960Z,98106.05
2022-11-28T09:45:02.857Z,98106.09
2022-11-28T09:47:14.057Z,98104.94
2022-11-28T09:49:39.856Z,98101.95
2022-11-28T09:51:53.073Z,98095.02
2022-11-28T09:54:01.471Z,98091.64
2022-11-28T09:56:15.856Z,98085.20
2022-11-28T09:58:32.232Z,98077.63
2022-11-28T10:00:52.630Z,98078.11
2022-11-28T10:03:36.364Z,98073.23
2022-11-28T10:05:51.433Z,98067.70
2022-11-28T10:08:29.503Z,98070.46
2022-11-28T10:10:35.191Z,98063.92
2022-11-28T10:12:43.135Z,98065.20
2022-11-28T10:15:14.349Z,98063.49
2022-11-28T10:17:23.336Z,98062.90
2022-11-28T10:19:55.134Z,98060.04
2022-11-28T10:22:02.250Z,98061.26
2022-11-28T10:24:13.929Z,98059.43
2022-11-28T10:26:32.320Z,98052.29
2022-11-28T10:28:38.952Z,98056.79
2022-11-28T10:30:46.467Z,98048.11
2022-11-28T10:32:57.813Z,98050.56
2022-11-28T10:35:04.625Z,98050.04
2022-11-28T10:37:24.887Z,98046.09
2022-11-28T10:39:28.409Z,98043.20
2022-11-28T10:41:40.538Z,98040.31
2022-11-28T10:44:08.122Z,98036.19
2022-11-28T10:46:38.827Z,98031.35
2022-11-28T10:49:12.153Z,98030.23
2022-11-28T10:51:27.407Z,98031.15
2022-11-28T10:53:38.196Z,98030.52
2022-11-28T10:56:11.751Z,98026.83
2022-11-28T10:58:29.606Z,98024.58
2022-11-28T11:00:35.306Z,98021.02
2022-11-28T11:02:45.743Z,98019.46
2022-11-28T11:04:48.891Z,98016.83
2022-11-28T11:07:16.232Z,98017.67
2022-11-28T11:09:20.945Z,98018.27
2022-11-28T11:11:32.398Z,98017.06
2022-11-28T11:13:56.745Z,98018.64
2022-11-28T11:16:11.714Z,98017.65
2022-11-28T11:18:32.466Z,98011.42
2022-11-28T11:20:39.324Z,98011.83
2022-11-28T11:22:56.129Z,98008.73
2022-11-28T11:25:05.602Z,98009.02
2022-11-28T11:27:18.466Z,98006.61
2022-11-28T11:29:37.013Z,98005.89
2022-11-28T11:31:44.369Z,98003.98
2022-11-28T11:33:50.554Z,98007.68
2022-11-28T11:35:53.551Z,98005.21
2022-11-28T11:38:27.376Z,98004.54
2022-11-28T11:40:30.231Z,98004.21
2022-11-28T11:42:33.587Z,98004.96
2022-11-28T11:44:38.656Z,98004.84
2022-11-28T11:46:55.904Z,98001.41
2022-11-28T11:48:58.951Z,98002.70
2022-11-28T11:51:02.105Z,97999.33
2022-11-28T11:53:14.322Z,97999.29
2022-11-28T11:55:18.288Z,97996.85
2022-11-28T11:57:33.260Z,97998.73
2022-11-28T11:59:49.646Z,98000.44
2022-11-28T12:02:00.579Z,97992.38
2022-11-28T12:04:23.723Z,97992.40
2022-11-28T12:06:37.285Z,97993.23
2022-11-28T12:09:09.072Z,97995.08
2022-11-28T12:11:18.584Z,97991.53
2022-11-28T12:13:27.684Z,97990.73
2022-11-28T12:16:26.518Z,97990.17
2022-11-28T12:19:00.711Z,97991.55
2022-11-28T12:21:14.753Z,97990.38
2022-11-28T12:23:38.651Z,97993.21
2022-11-28T12:25:53.684Z,97991.80
2022-11-28T12:29:47.035Z,97986.61
2022-11-28T12:34:13.580Z,97986.88
2022-11-28T12:38:11.081Z,97977.95
2022-11-28T12:42:21.956Z,97975.28
2022-11-28T12:45:54.763Z,97974.34
2022-11-28T12:49:48.512Z,97964.69
2022-11-28T12:53:45.754Z,97961.76
2022-11-28T12:56:18.130Z,97958.67
2022-11-28T12:58:35.737Z,97957.60
2022-11-28T13:01:05.985Z,97951.84
2022-11-28T13:03:12.723Z,97948.24
2022-11-28T13:05:24.685Z,97950.69
2022-11-28T13:08:03.262Z,97947.64
2022-11-28T13:10:09.208Z,97951.13
2022-11-28T13:13:07.238Z,97945.65
2022-11-28T13:15:22.457Z,97946.40
2022-11-28T13:17:37.428Z,97941.46
2022-11-28T13:20:06.700Z,97942.26
2022-11-28T13:22:27.767Z,97940.44
2022-11-28T13:24:40.143Z,97935.64
2022-11-28T13:27:00.179Z,97935.81
2022-11-28T13:29:08.928Z,97936.51
2022-11-28T13:31:26.850Z,97936.38
2022-11-28T13:33:52.656Z,97935.33
2022-11-28T13:35:58.617Z,97932.00
2022-11-28T13:40:42.808Z,97935.98
2022-11-28T13:43:06.751Z,97931.14
2022-11-28T13:45:26.673Z,97937.10
2022-11-28T13:47:35.388Z,97938.70
2022-11-28T13:49:38.168Z,97940.27
2022-11-28T13:51:41.139Z,97940.02
2022-11-28T13:53:45.774Z,97938.76
2022-11-28T13:55:51.154Z,97936.24
2022-11-28T13:57:54.025Z,97942.55
2022-11-28T14:00:07.820Z,97937.23
2022-11-28T14:02:23.953Z,97933.13
2022-11-28T14:04:29.372Z,97934.95
2022-11-28T14:06:46.483Z,97932.09
2022-11-28T14:09:08.556Z,97931.77
2022-11-28T14:11:38.880Z,97934.09
2022-11-28T14:14:17.065Z,97931.40
2022-11-28T14:16:54.006Z,97935.38
2022-11-28T14:19:14.881Z,97935.08
2022-11-28T14:21:40.971Z,97934.23
2022-11-28T14:23:52.741Z,97929.96
2022-11-28T14:25:56.523Z,97932.84
2022-11-28T14:28:02.833Z,97935.48
2022-11-28T14:30:42.410Z,97937.63
2022-11-28T14:32:45.259Z,97932.79
2022-11-28T14:34:48.926Z,97936.38
2022-11-28T14:37:20.880Z,97937.34
2022-11-28T14:39:35.034Z,97939.11
2022-11-28T14:42:02.748Z,97940.64
2022-11-28T14:44:45.793Z,97940.20
2022-11-28T14:47:07.151Z,97937.70
2022-11-28T14:49:20.695Z,97937.71
2022-11-28T14:51:48.367Z,97937.85
2022-11-28T14:53:52.013Z,97943.35
2022-11-28T14:55:54.841Z,97942.23
2022-11-28T14:58:05.364Z,97945.27
2022-11-28T15:00:16.461Z,97947.21
2022-11-28T15:02:37.377Z,97946.38
2022-11-28T15:05:07.430Z,97952.04
2022-11-28T15:07:32.107Z,97950.40
2022-11-28T15:09:43.915Z,97948.44
2022-11-28T15:12:05.605Z,97946.92
2022-11-28T15:14:14.304Z,97950.02
2022-11-28T15:16:20.167Z,97951.90
2022-11-28T15:18:26.271Z,97952.27
2022-11-28T15:20:44.138Z,97955.84
2022-11-28T15:22:47.070Z,97954.81
2022-11-28T15:24:52.479Z,97953.95
2022-11-28T15:26:58.723Z,97953.38
2022-11-28T15:29:18.178Z,97949.77
2022-11-28T15:31:23.349Z,97950.14
2022-11-28T15:33:27.503Z,97950.53
2022-11-28T15:35:30.831Z,97952.98
2022-11-28T15:37:35.419Z,97954.45
2022-11-28T15:39:40.981Z,97950.14
2022-11-28T15:41:46.364Z,97952.86
2022-11-28T15:43:49.647Z,97951.38
2022-11-28T15:45:58.649Z,97952.30
2022-11-28T15:48:02.199Z,97951.73
2022-11-28T15:50:19.596Z,97955.73
2022-11-28T15:52:22.372Z,97950.30
2022-11-28T15:54:41.395Z,97956.66
2022-11-28T15:56:57.361Z,97961.56
2022-11-28T15:59:00.377Z,97960.30
2022-11-28T16:01:33.544Z,97962.89
2022-11-28T16:03:49.293Z,97965.95
2022-11-28T16:05:54.631Z,97964.64
2022-11-28T16:07:57.513Z,97966.25
2022-11-28T16:10:04.719Z,97966.94
2022-11-28T16:12:14.322Z,97972.75
2022-11-28T16:14:26.273Z,97971.02
2022-11-28T16:16:35.658Z,97967.41
2022-11-28T16:18:43.419Z,97971.61
2022-11-28T16:20:46.704Z,97974.27
2022-11-28T16:22:49.639Z,97975.14
2022-11-28T16:24:57.379Z,97975.01
2022-11-28T16:27:05.764Z,97975.48
2022-11-28T16:29:08.446Z,97975.26
2022-11-28T16:31:12.525Z,97978.02
2022-11-28T16:33:34.951Z,97974.77
2022-11-28T16:35:39.008Z,97978.19
2022-11-28T16:37:41.793Z,97975.59
2022-11-28T16:39:44.958Z,97977.14
2022-11-28T16:42:07.562Z,97977.50
2022-11-28T16:44:14.504Z,97976.42
2022-11-28T16:46:21.551Z,97977.84
2022-11-28T16:48:27.208Z,97979.02
2022-11-28T16:50:30.015Z,97982.25
2022-11-28T16:52:32.963Z,97982.36
2022-11-28T16:54:35.779Z,97979.20
2022-11-28T16:56:38.537Z,97979.55
2022-11-28T16:58:41.540Z,97978.98
2022-11-28T17:00:50.383Z,97980.15
2022-11-28T17:02:53.615Z,97978.91
2022-11-28T17:04:57.756Z,97977.48
2022-11-28T17:07:05.737Z,97972.59
2022-11-28T17:09:11.948Z,97973.50
2022-11-28T17:11:16.965Z,97973.39
2022-11-28T17:13:19.763Z,97973.70
2022-11-28T17:15:23.641Z,97975.70
2022-11-28T17:17:27.932Z,97981.10
2022-11-28T17:19:30.780Z,97975.69
2022-11-28T17:21:39.252Z,97975.69
2022-11-28T17:23:42.650Z,97976.69
2022-11-28T17:25:45.410Z,97980.08
2022-11-28T17:27:48.301Z,97978.59
2022-11-28T17:29:51.169Z,97978.48
2022-11-28T17:31:57.236Z,97979.81
2022-11-28T17:34:00.033Z,97977.98
2022-11-28T17:36:04.037Z,97976.41
2022-11-28T17:38:06.903Z,97977.32
2022-11-28T17:40:28.711Z,97982.02
2022-11-28T17:42:31.957Z,97977.41
2022-11-28T17:44:37.644Z,97972.81
2022-11-28T17:46:40.453Z,97969.69
2022-11-28T17:48:43.252Z,97972.08
2022-11-28T17:50:48.670Z,97969.23
2022-11-28T17:52:51.474Z,97969.89
2022-11-28T17:55:00.857Z,97967.93
2022-11-28T17:57:06.443Z,97966.86
2022-11-28T17:59:11.773Z,97966.08
2022-11-28T18:01:18.623Z,97969.83
2022-11-28T18:03:21.875Z,97970.00
2022-11-28T18:05:24.627Z,97964.75
2022-11-28T18:07:27.634Z,97965.17
2022-11-28T18:09:30.461Z,97968.23
2022-11-28T18:11:33.319Z,97964.32
2022-11-28T18:13:36.524Z,97967.79
2022-11-28T18:15:39.815Z,97966.03
2022-11-28T18:17:42.555Z,97962.04
2022-11-28T18:19:46.984Z,97958.53
2022-11-28T18:21:50.015Z,97957.88
2022-11-28T18:23:53.005Z,97958.13
2022-11-28T18:25:56.216Z,97956.82
2022-11-28T18:27:59.409Z,97963.44
2022-11-28T18:30:02.267Z,97961.00
2022-11-28T18:32:05.049Z,97962.30
2022-11-28T18:34:09.657Z,97962.59
2022-11-28T18:36:15.221Z,97962.93
2022-11-28T18:38:18.036Z,97964.98
2022-11-28T18:40:20.813Z,97963.35
2022-11-28T18:42:24.120Z,97962.12
2022-11-28T18:44:27.048Z,97960.92
2022-11-28T18:46:31.017Z,97965.70
2022-11-28T18:48:37.649Z,97963.72
2022-11-28T18:50:40.583Z,97963.66
2022-11-28T18:52:43.324Z,97960.13
2022-11-28T18:54:46.283Z,97960.64
2022-11-28T18:56:49.496Z,97962.73
2022-11-28T18:58:54.182Z,97963.74
2022-11-28T19:00:57.168Z,97959.27
2022-11-28T19:02:59.910Z,97958.63
2022-11-28T19:05:02.766Z,97966.23
2022-11-28T19:07:05.623Z,97963.45
2022-11-28T19:09:12.418Z,97961.95
2022-11-28T19:11:17.217Z,97963.33
2022-11-28T19:13:20.272Z,97963.84
2022-11-28T19:15:23.074Z,97963.39
2022-11-28T19:17:25.977Z,97966.85
2022-11-28T19:19:28.985Z,97966.28
2022-11-28T19:21:34.676Z,97967.56
2022-11-28T19:23:38.681Z,97966.77
2022-11-28T19:25:42.607Z,97967.42
2022-11-28T19:27:45.354Z,97966.20
2022-11-28T19:29:48.176Z,97965.48
2022-11-28T19:31:51.216Z,97965.44
2022-11-28T19:34:06.643Z,97960.17
2022-11-28T19:36:11.906Z,97968.05
2022-11-28T19:38:14.756Z,97962.14
2022-11-28T19:40:17.685Z,97960.57
2022-11-28T19:42:20.622Z,97961.39
2022-11-28T19:44:24.824Z,97961.27
2022-11-28T19:46:31.884Z,97962.45
2022-11-28T19:48:39.745Z,97959.74
2022-11-28T19:50:49.226Z,97961.20
2022-11-28T19:52:51.987Z,97963.98
2022-11-28T19:54:54.836Z,97962.62
2022-11-28T19:56:57.661Z,97963.47
2022-11-28T19:59:00.823Z,97968.20
2022-11-28T20:01:33.105Z,97973.44
2022-11-28T20:03:37.826Z,97972.25
2022-11-28T20:05:41.855Z,97975.55
2022-11-28T20:07:44.823Z,97980.00
2022-11-28T20:09:48.171Z,97977.47
2022-11-28T20:11:50.987Z,97982.66
2022-11-28T20:13:57.801Z,97984.77
2022-11-28T20:16:04.792Z,97983.75
2022-11-28T20:18:07.760Z,97983.67
2022-11-28T20:20:11.011Z,97990.20
2022-11-28T20:22:13.916Z,97987.17
2022-11-28T20:24:16.683Z,97990.15
2022-11-28T20:26:23.071Z,97988.66
2022-11-28T20:28:26.027Z,97989.55
2022-11-28T20:30:28.850Z,97990.05
2022-11-28T20:32:31.624Z,97987.98
2022-11-28T20:34:34.340Z,97986.12
2022-11-28T20:36:37.274Z,97985.18
2022-11-28T20:38:40.038Z,97984.04
2022-11-28T20:40:42.753Z,97986.13
2022-11-28T20:42:45.571Z,97982.55
2022-11-28T20:44:48.296Z,97984.95
2022-11-28T20:46:51.450Z,97981.85
2022-11-28T20:48:56.704Z,97985.96
2022-11-28T20:50:59.511Z,97986.06
2022-11-28T20:53:02.440Z,97986.59
2022-11-28T20:55:05.718Z,97986.20
2022-11-28T20:57:23.717Z,97985.94
2022-11-28T20:59:26.723Z,97986.54
2022-11-28T21:01:33.436Z,97988.99
2022-11-28T21:03:37.113Z,97996.16
2022-11-28T21:05:40.076Z,97993.75
2022-11-28T21:07:42.858Z,97995.64
2022-11-28T21:09:45.718Z,97998.10
2022-11-28T21:11:58.568Z,97998.33
2022-11-28T21:14:02.912Z,97993.98
2022-11-28T21:16:08.143Z,97993.98
2022-11-28T21:18:12.838Z,97996.95
2022-11-28T21:20:15.578Z,97997.58
2022-11-28T21:22:18.464Z,97994.45
2022-11-28T21:24:21.295Z,97998.69
2022-11-28T21:26:30.124Z,97999.12
2022-11-28T21:28:39.062Z,97998.67
2022-11-28T21:30:44.174Z,97998.92
2022-11-28T21:32:47.632Z,97996.74
2022-11-28T21:34:50.412Z,98000.09
2022-11-28T21:36:53.989Z,98007.02
2022-11-28T21:39:01.796Z,98007.34
2022-11-28T21:41:04.634Z,98007.41
2022-11-28T21:43:07.433Z,98006.73
2022-11-28T21:45:10.618Z,98004.40
2022-11-28T21:47:13.456Z,98002.44
2022-11-28T21:49:17.242Z,98005.99
2022-11-28T21:51:22.788Z,98003.96
2022-11-28T21:53:26.651Z,98004.70
2022-11-28T21:55:29.407Z,98009.73
2022-11-28T21:57:32.241Z,98007.86
2022-11-28T21:59:35.031Z,98006.86
2022-11-28T22:01:37.926Z,98002.98
2022-11-28T22:03:41.927Z,98001.81
2022-11-28T22:05:44.935Z,97999.58
2022-11-28T22:07:47.787Z,97999.73
2022-11-28T22:09:50.628Z,97998.40
2022-11-28T22:11:53.313Z,97995.98
2022-11-28T22:13:56.054Z,97994.47
2022-11-28T22:15:58.808Z,97992.14
2022-11-28T22:18:01.624Z,97989.05
2022-11-28T22:20:06.110Z,97987.03
2022-11-28T22:22:08.940Z,97983.06
2022-11-28T22:24:12.259Z,97977.39
2022-11-28T22:26:15.636Z,97968.88
2022-11-28T22:28:18.440Z,97970.05
2022-11-28T22:30:21.420Z,97972.16
2022-11-28T22:32:24.415Z,97971.16
2022-11-28T22:34:27.399Z,97975.21
2022-11-28T22:36:32.198Z,97977.58
2022-11-28T22:38:35.057Z,97975.27
2022-11-28T22:40:38.080Z,97978.36
2022-11-28T22:42:41.029Z,97980.86
2022-11-28T22:44:44.198Z,97980.27
2022-11-28T22:46:47.405Z,97984.06
2022-11-28T22:48:51.970Z,97982.86
2022-11-28T22:50:54.961Z,97982.02
2022-11-28T22:52:57.709Z,97985.90
2022-11-28T22:55:00.480Z,97986.64
2022-11-28T22:57:03.409Z,97986.21
2022-11-28T22:59:11.104Z,97992.39
2022-11-28T23:01:17.681Z,97987.98
2022-11-28T23:03:20.563Z,97986.66
2022-11-28T23:05:23.818Z,97984.05
2022-11-28T23:07:26.664Z,97980.66
2022-11-28T23:09:29.633Z,97980.42
2022-11-28T23:11:34.261Z,97983.92
2022-11-28T23:13:38.118Z,97986.02
2022-11-28T23:15:44.439Z,97976.44
2022-11-28T23:17:50.230Z,97978.26
2022-11-28T23:19:53.069Z,97973.08
2022-11-28T23:21:55.958Z,97974.38
2022-11-28T23:23:58.791Z,97975.66
2022-11-28T23:26:10.115Z,97976.69
2022-11-28T23:28:12.886Z,97976.45
2022-11-28T23:30:15.731Z,97977.42
2022-11-28T23:32:18.503Z,97979.40
2022-11-28T23:34:21.284Z,97982.29
2022-11-28T23:36:49.086Z,97981.63
2022-11-28T23:38:55.262Z,97977.75
2022-11-28T23:40:58.221Z,97980.41
2022-11-28T23:43:01.140Z,97980.66
2022-11-28T23:45:04.281Z,97977.22
2022-11-28T23:47:07.102Z,97974.64
2022-11-28T23:49:10.533Z,97973.29
2022-11-28T23:51:19.001Z,97971.95
2022-11-28T23:53:22.150Z,97975.38
2022-11-28T23:55:24.901Z,97973.31
2022-11-28T23:57:28.788Z,97974.61
2022-11-28T23:59:31.718Z,97977.65
